Picacho, New Mexico
Current Conditions -  °F | °C
As of 10:51 AM on Sunday 25 Jan 2015 (Local Time) from KROW Reporting Station
Clear Clear  
Wind Chill: 11°   Ceiling: Unl
Heat Index: 11°   Visibility: 10mi
Dew Point: -3°   Wind: 6mph
Humidity: 39%   Direction: 350°N
Pressure: 30.33"   Gusts: NA
Location:  33.41°N, 105.01°W
Report Text: KROW 251751Z 35005KT 10SM CLR 11/M03 A3033 RMK AO2 SLP258 T01061028 10106 21017 51014
Loading
Personal Weather Stations






























Interactive Weather Map New forecast layout! Learn more

10-Day Weather Forecast

Advertisements
Track Severe Weather on mobile